Sanko Independence — A8QJ9 — position and weather

sailwx.info

Track history (hours):
 
Tides and Currents Weather Stations Pressure Air Temp Water Temp Dewpoint Dewpoint Depression Visibility Wind Speed Wind Dir Waves Ship Positions

Sanko Independence

Last reported at 2017-Oct-09 11:31 UTC. Time now 2017-Nov-22 22:15 UTC.
Position N 37°27' E 025°56'.
Warning: this ship's position is 44 days out of date.

Length 174 m; draft 10.5 m.

Type: Ship (hazmat cat B). MMSI: 636013946.

Date/timePositionNaut miles runAvg speedWind from/ knotsBaromVisibWave heightAir tempDewpointWater temp
2017-Oct-09 11:31N 37°27' E 025°56'014.4
2017-Oct-09 11:30N 37°27' E 025°55'714.3
2017-Oct-09 11:01N 37°34' E 025°51'235 7.8
2017-Oct-08 04:40N 40°53' E 028°33'814.3
2017-Oct-08 04:08N 40°53' E 028°43'614.2
2017-Oct-08 03:41N 40°55' E 028°52'314.1
2017-Oct-08 03:30N 40°56' E 028°54'3 5.2
2017-Oct-08 02:51N 40°58' E 028°58'3 7.5
2017-Oct-08 02:30N 41°00' E 028°60'32611.5
2017-Oct-06 22:08N 46°15' E 030°55'314.4
2017-Oct-06 21:55N 46°18' E 030°54'615.0
2017-Oct-06 21:30N 46°24' E 030°55'714.6
2017-Oct-06 21:00N 46°32' E 030°55'4 8.7
2017-Oct-06 20:30N 46°34' E 031°00'3 0.1
2017-Oct-05 18:48N 46°37' E 031°01'0 0.2
2017-Oct-05 18:30N 46°37' E 031°01'2 3.7
2017-Oct-05 18:00N 46°35' E 031°01'3 6.9
2017-Oct-05 17:30N 46°32' E 030°59'0 0.3
2017-Oct-05 16:57N 46°32' E 030°59'0 0.0
2017-Oct-05 13:36N 46°32' E 030°59'0 0.0
2017-Oct-05 13:24N 46°32' E 030°59'0 0.0
2017-Oct-05 12:54N 46°32' E 030°59'0 0.0
2017-Oct-05 09:42N 46°32' E 030°59'0 0.0
2017-Oct-05 09:30N 46°32' E 030°59'0 0.0
2017-Oct-05 08:27N 46°32' E 030°59'0 0.0
2017-Oct-05 07:51N 46°32' E 030°59'0 0.0
2017-Oct-05 07:30N 46°32' E 030°59'0 0.0
2017-Oct-05 05:45N 46°32' E 030°59'0 0.0
2017-Oct-05 04:18N 46°32' E 030°59'0 0.0
2017-Oct-05 04:00N 46°32' E 030°59'0 0.0
2017-Oct-05 01:48N 46°32' E 030°59'0 0.0
2017-Oct-05 01:30N 46°32' E 030°59'0 0.0
2017-Oct-05 00:57N 46°32' E 030°59'0 0.0
2017-Oct-04 22:51N 46°32' E 030°59'0 0.0
2017-Oct-04 22:30N 46°32' E 030°59'0 0.0
2017-Oct-04 20:45N 46°32' E 030°59'0 0.0
2017-Oct-04 15:54N 46°32' E 030°59'0 0.0
2017-Oct-04 11:09N 46°32' E 030°59'0 0.0
2017-Oct-04 10:42N 46°32' E 030°59'0 0.1
2017-Oct-04 10:30N 46°32' E 030°59'0 0.0
2017-Oct-04 09:27N 46°32' E 030°59'0 0.0
2017-Oct-04 08:57N 46°32' E 030°59'0 0.0
2017-Oct-04 08:24N 46°32' E 030°59'0 0.0
2017-Oct-04 08:00N 46°32' E 030°59'0 0.0
2017-Oct-04 04:42N 46°32' E 030°59'0 0.0
2017-Oct-04 04:27N 46°32' E 030°59'0 0.0
2017-Oct-04 03:57N 46°32' E 030°59'0 0.1
2017-Oct-04 03:30N 46°32' E 030°59'0 0.0
2017-Oct-03 22:54N 46°32' E 030°59'0 0.0
2017-Oct-03 22:30N 46°32' E 030°59'0 0.0
2017-Oct-03 21:06N 46°32' E 030°59'0 0.1
2017-Oct-03 20:54N 46°32' E 030°59'0 0.0
2017-Oct-03 20:15N 46°32' E 030°59'0 0.0
2017-Oct-03 19:54N 46°32' E 030°59'0 0.0
2017-Oct-03 18:42N 46°32' E 030°59'0 0.1
2017-Oct-03 18:27N 46°32' E 030°59'0 0.3
2017-Oct-03 18:00N 46°32' E 030°59'0 0.4
2017-Oct-03 17:29N 46°32' E 030°59'1 2.1
2017-Oct-03 17:00N 46°32' E 030°58'5 9.1
2017-Oct-03 16:30N 46°27' E 030°57'815.0
2017-Oct-03 16:00N 46°20' E 030°57'714.7
2017-Oct-03 15:30N 46°13' E 031°02'11014.3
2017-Oct-03 07:48N 44°23' E 030°52'21912.8
2017-Oct-02 14:37N 41°00' E 028°60'110.2
2017-Oct-02 14:30N 40°59' E 028°60'2 4.6
2017-Oct-02 13:59N 40°57' E 028°59'3 4.4
2017-Oct-02 13:24N 40°55' E 028°56'3 6.3
2017-Oct-02 12:55N 40°57' E 028°53'0 0.0
2017-Oct-02 07:05N 40°57' E 028°53'0 0.1
2017-Oct-02 06:53N 40°57' E 028°53'0 0.0
2017-Oct-01 13:48N 40°57' E 028°53'1 4.2
2017-Oct-01 13:29N 40°56' E 028°53'510.1
2017-Oct-01 13:00N 40°51' E 028°52'714.2
2017-Oct-01 12:30N 40°46' E 028°44'  
Track history (hours):
 
Tides and Currents Weather Stations Pressure Air Temp Water Temp Dewpoint Dewpoint Depression Visibility Wind Speed Wind Dir Waves Ship Positions

Sanko Independence

Last reported at 2017-Oct-09 11:31 UTC. Time now 2017-Nov-22 22:15 UTC.
Position N 37°27' E 025°56'.
Warning: this ship's position is 44 days out of date.

Length 174 m; draft 10.5 m.

Type: Ship (hazmat cat B). MMSI: 636013946.

Date/timePositionNaut miles runAvg speedWind from/ knotsBaromVisibWave heightAir tempDewpointWater temp
2017-Oct-09 11:31N 37°27' E 025°56'014.4
2017-Oct-09 11:30N 37°27' E 025°55'714.3
2017-Oct-09 11:01N 37°34' E 025°51'235 7.8
2017-Oct-08 04:40N 40°53' E 028°33'814.3
2017-Oct-08 04:08N 40°53' E 028°43'614.2
2017-Oct-08 03:41N 40°55' E 028°52'314.1
2017-Oct-08 03:30N 40°56' E 028°54'3 5.2
2017-Oct-08 02:51N 40°58' E 028°58'3 7.5
2017-Oct-08 02:30N 41°00' E 028°60'32611.5
2017-Oct-06 22:08N 46°15' E 030°55'314.4
2017-Oct-06 21:55N 46°18' E 030°54'615.0
2017-Oct-06 21:30N 46°24' E 030°55'714.6
2017-Oct-06 21:00N 46°32' E 030°55'4 8.7
2017-Oct-06 20:30N 46°34' E 031°00'3 0.1
2017-Oct-05 18:48N 46°37' E 031°01'0 0.2
2017-Oct-05 18:30N 46°37' E 031°01'2 3.7
2017-Oct-05 18:00N 46°35' E 031°01'3 6.9
2017-Oct-05 17:30N 46°32' E 030°59'0 0.3
2017-Oct-05 16:57N 46°32' E 030°59'0 0.0
2017-Oct-05 13:36N 46°32' E 030°59'0 0.0
2017-Oct-05 13:24N 46°32' E 030°59'0 0.0
2017-Oct-05 12:54N 46°32' E 030°59'0 0.0
2017-Oct-05 09:42N 46°32' E 030°59'0 0.0
2017-Oct-05 09:30N 46°32' E 030°59'0 0.0
2017-Oct-05 08:27N 46°32' E 030°59'0 0.0
2017-Oct-05 07:51N 46°32' E 030°59'0 0.0
2017-Oct-05 07:30N 46°32' E 030°59'0 0.0
2017-Oct-05 05:45N 46°32' E 030°59'0 0.0
2017-Oct-05 04:18N 46°32' E 030°59'0 0.0
2017-Oct-05 04:00N 46°32' E 030°59'0 0.0
2017-Oct-05 01:48N 46°32' E 030°59'0 0.0
2017-Oct-05 01:30N 46°32' E 030°59'0 0.0
2017-Oct-05 00:57N 46°32' E 030°59'0 0.0
2017-Oct-04 22:51N 46°32' E 030°59'0 0.0
2017-Oct-04 22:30N 46°32' E 030°59'0 0.0
2017-Oct-04 20:45N 46°32' E 030°59'0 0.0
2017-Oct-04 15:54N 46°32' E 030°59'0 0.0
2017-Oct-04 11:09N 46°32' E 030°59'0 0.0
2017-Oct-04 10:42N 46°32' E 030°59'0 0.1
2017-Oct-04 10:30N 46°32' E 030°59'0 0.0
2017-Oct-04 09:27N 46°32' E 030°59'0 0.0
2017-Oct-04 08:57N 46°32' E 030°59'0 0.0
2017-Oct-04 08:24N 46°32' E 030°59'0 0.0
2017-Oct-04 08:00N 46°32' E 030°59'0 0.0
2017-Oct-04 04:42N 46°32' E 030°59'0 0.0
2017-Oct-04 04:27N 46°32' E 030°59'0 0.0
2017-Oct-04 03:57N 46°32' E 030°59'0 0.1
2017-Oct-04 03:30N 46°32' E 030°59'0 0.0
2017-Oct-03 22:54N 46°32' E 030°59'0 0.0
2017-Oct-03 22:30N 46°32' E 030°59'0 0.0
2017-Oct-03 21:06N 46°32' E 030°59'0 0.1
2017-Oct-03 20:54N 46°32' E 030°59'0 0.0
2017-Oct-03 20:15N 46°32' E 030°59'0 0.0
2017-Oct-03 19:54N 46°32' E 030°59'0 0.0
2017-Oct-03 18:42N 46°32' E 030°59'0 0.1
2017-Oct-03 18:27N 46°32' E 030°59'0 0.3
2017-Oct-03 18:00N 46°32' E 030°59'0 0.4
2017-Oct-03 17:29N 46°32' E 030°59'1 2.1
2017-Oct-03 17:00N 46°32' E 030°58'5 9.1
2017-Oct-03 16:30N 46°27' E 030°57'815.0
2017-Oct-03 16:00N 46°20' E 030°57'714.7
2017-Oct-03 15:30N 46°13' E 031°02'11014.3
2017-Oct-03 07:48N 44°23' E 030°52'21912.8
2017-Oct-02 14:37N 41°00' E 028°60'110.2
2017-Oct-02 14:30N 40°59' E 028°60'2 4.6
2017-Oct-02 13:59N 40°57' E 028°59'3 4.4
2017-Oct-02 13:24N 40°55' E 028°56'3 6.3
2017-Oct-02 12:55N 40°57' E 028°53'0 0.0
2017-Oct-02 07:05N 40°57' E 028°53'0 0.1
2017-Oct-02 06:53N 40°57' E 028°53'0 0.0
2017-Oct-01 13:48N 40°57' E 028°53'1 4.2
2017-Oct-01 13:29N 40°56' E 028°53'510.1
2017-Oct-01 13:00N 40°51' E 028°52'714.2
2017-Oct-01 12:30N 40°46' E 028°44'  

Dump ship's entire track history